createdAt,value
2019-05-26T00:04:31.682Z,1
2019-05-26T00:09:34.158Z,1
2019-05-26T00:14:36.653Z,1
2019-05-26T00:19:39.057Z,1
2019-05-26T00:24:41.536Z,1
2019-05-26T00:29:43.978Z,19
2019-05-26T00:34:46.441Z,12.6
2019-05-26T00:39:48.881Z,11.2
2019-05-26T00:44:51.339Z,14.3
2019-05-26T00:49:53.780Z,11.2
2019-05-26T00:54:56.329Z,17.3
2019-05-26T00:59:58.738Z,19.7
2019-05-26T01:05:01.167Z,20.6
2019-05-26T01:10:03.657Z,24.5
2019-05-26T01:15:06.139Z,17.9
2019-05-26T01:20:08.550Z,17.7
2019-05-26T01:25:11.042Z,21.4
2019-05-26T01:30:13.536Z,45.7
2019-05-26T01:35:15.939Z,52
2019-05-26T01:40:18.375Z,53.8
2019-05-26T01:45:20.835Z,55.5
2019-05-26T01:50:23.306Z,61
2019-05-26T01:55:25.753Z,71.3
2019-05-26T02:00:28.192Z,67.4
2019-05-26T02:05:30.669Z,64.6
2019-05-26T02:10:33.118Z,52.7
2019-05-26T02:15:35.592Z,39.7
2019-05-26T02:20:38.012Z,30
2019-05-26T02:25:40.494Z,27
2019-05-26T02:30:42.945Z,24.6
2019-05-26T02:35:45.391Z,24.5
2019-05-26T02:40:47.896Z,21.3
2019-05-26T02:45:50.315Z,18.1
2019-05-26T02:50:52.770Z,15.1
2019-05-26T02:55:55.269Z,17.2
2019-05-26T03:00:57.709Z,26.7
2019-05-26T03:06:00.162Z,33.3
2019-05-26T03:11:02.610Z,47.3
2019-05-26T03:16:05.074Z,66.8
2019-05-26T03:21:07.544Z,78.6
2019-05-26T03:26:10.001Z,77.4
2019-05-26T03:31:12.448Z,76.2
2019-05-26T03:36:14.890Z,76.9
2019-05-26T03:41:17.396Z,77.6
2019-05-26T03:46:19.893Z,79.4
2019-05-26T03:51:22.319Z,90.8
2019-05-26T03:56:24.735Z,99.9
2019-05-26T04:01:27.182Z,99.9
2019-05-26T04:06:29.670Z,99.9
2019-05-26T04:11:32.223Z,99.9
2019-05-26T04:16:34.669Z,99.9
2019-05-26T04:21:36.995Z,99.9
2019-05-26T04:26:39.471Z,99.9
2019-05-26T04:31:41.957Z,99.9
2019-05-26T04:36:44.396Z,99.9
2019-05-26T04:41:46.884Z,99.9
2019-05-26T04:46:49.321Z,99.9
2019-05-26T04:51:51.770Z,99.9
2019-05-26T04:56:54.206Z,99.9
2019-05-26T05:01:56.690Z,99.9
2019-05-26T05:06:59.147Z,99.9
2019-05-26T05:12:01.604Z,99.9
2019-05-26T05:17:04.061Z,99.9
2019-05-26T05:22:06.515Z,52.8
2019-05-26T05:27:08.967Z,4.1
2019-05-26T05:32:11.430Z,1
2019-05-26T05:37:13.892Z,1
2019-05-26T05:42:16.317Z,1
2019-05-26T05:47:18.786Z,1
2019-05-26T05:52:21.268Z,1
2019-05-26T05:57:23.701Z,1
2019-05-26T06:02:26.191Z,1
2019-05-26T06:07:28.649Z,1
2019-05-26T06:12:31.097Z,1
2019-05-26T06:17:33.575Z,1
2019-05-26T06:22:36.042Z,1
2019-05-26T06:27:38.556Z,1
2019-05-26T06:32:41.044Z,1
2019-05-26T06:37:43.386Z,1
2019-05-26T06:42:45.863Z,1
2019-05-26T06:47:48.306Z,1
2019-05-26T06:52:50.741Z,1
2019-05-26T06:57:53.198Z,1
2019-05-26T07:02:55.663Z,1
2019-05-26T07:07:58.163Z,1
2019-05-26T07:13:00.588Z,1
2019-05-26T07:18:03.195Z,1
2019-05-26T07:23:07.027Z,1
2019-05-26T07:28:08.026Z,1
2019-05-26T07:33:10.452Z,1
2019-05-26T07:38:12.922Z,1
2019-05-26T07:43:15.356Z,1
2019-05-26T07:48:17.842Z,1
2019-05-26T07:53:20.342Z,1
2019-05-26T07:58:22.749Z,1
2019-05-26T08:03:25.255Z,1
2019-05-26T08:08:27.698Z,1
2019-05-26T08:13:30.134Z,1
2019-05-26T08:18:32.590Z,1
2019-05-26T08:23:35.036Z,1
2019-05-26T08:28:37.535Z,1
2019-05-26T08:33:39.987Z,1
2019-05-26T08:38:42.438Z,1
2019-05-26T08:43:44.892Z,1
2019-05-26T08:48:47.450Z,1
2019-05-26T08:53:49.791Z,1
2019-05-26T08:58:52.383Z,1
2019-05-26T09:03:54.722Z,1
2019-05-26T09:08:57.200Z,1
2019-05-26T09:13:59.647Z,1
2019-05-26T09:19:02.124Z,1
2019-05-26T09:24:04.564Z,1
2019-05-26T09:29:07.034Z,1
2019-05-26T09:34:09.511Z,1
2019-05-26T09:39:11.967Z,1
2019-05-26T09:44:14.506Z,1
2019-05-26T09:49:16.940Z,1
2019-05-26T09:54:19.485Z,1
2019-05-26T09:59:21.820Z,1
2019-05-26T10:04:24.300Z,1
2019-05-26T10:09:26.753Z,1
2019-05-26T10:14:29.186Z,1
2019-05-26T10:19:31.687Z,1
2019-05-26T10:24:34.144Z,1
2019-05-26T10:29:36.578Z,1
2019-05-26T10:34:39.062Z,1
2019-05-26T10:39:44.749Z,1
2019-05-26T10:44:43.981Z,1
2019-05-26T10:49:46.444Z,1
2019-05-26T10:54:48.895Z,1
2019-05-26T10:59:51.411Z,1
2019-05-26T11:04:53.867Z,1
2019-05-26T11:09:56.325Z,1
2019-05-26T11:14:58.786Z,1
2019-05-26T11:25:03.662Z,1
2019-05-26T11:30:06.169Z,1
2019-05-26T11:35:08.579Z,1
2019-05-26T11:40:11.119Z,1
2019-05-26T11:45:13.506Z,1
2019-05-26T11:50:15.951Z,1
2019-05-26T11:55:18.427Z,1
2019-05-26T12:00:20.868Z,1
2019-05-26T12:05:23.347Z,1
2019-05-26T12:10:25.806Z,1
2019-05-26T12:15:28.256Z,1
2019-05-26T12:20:30.725Z,1
2019-05-26T12:25:33.182Z,1
2019-05-26T12:30:35.657Z,1
2019-05-26T12:35:38.163Z,1
2019-05-26T12:40:40.552Z,1
2019-05-26T12:45:43.014Z,1
2019-05-26T12:50:45.519Z,1
2019-05-26T12:55:47.954Z,1
2019-05-26T13:00:54.450Z,1
2019-05-26T13:05:52.884Z,1
2019-05-26T13:10:55.337Z,1
2019-05-26T13:15:57.799Z,1
2019-05-26T13:21:00.214Z,1
2019-05-26T13:26:02.721Z,1
2019-05-26T13:31:05.149Z,1
2019-05-26T13:36:07.660Z,1
2019-05-26T13:41:10.066Z,1
2019-05-26T13:46:12.536Z,1
2019-05-26T13:51:15.031Z,1
2019-05-26T13:56:17.498Z,1
2019-05-26T14:01:19.903Z,1
2019-05-26T14:06:22.518Z,1
2019-05-26T14:11:24.855Z,1
2019-05-26T14:16:27.293Z,1
2019-05-26T14:21:29.828Z,1
2019-05-26T14:26:32.188Z,1
2019-05-26T14:31:34.680Z,1
2019-05-26T14:36:37.199Z,1
2019-05-26T14:41:39.572Z,1
2019-05-26T14:46:42.066Z,1
2019-05-26T14:51:44.520Z,1
2019-05-26T14:56:46.977Z,1
2019-05-26T15:01:49.426Z,1
2019-05-26T15:06:51.882Z,1
2019-05-26T15:11:54.348Z,1
2019-05-26T15:16:56.802Z,1
2019-05-26T15:21:59.345Z,1
2019-05-26T15:27:01.744Z,1
2019-05-26T15:32:04.167Z,1
2019-05-26T15:37:06.681Z,1
2019-05-26T15:42:09.094Z,1
2019-05-26T15:47:11.556Z,1
2019-05-26T15:52:13.997Z,1
2019-05-26T15:57:16.456Z,1
2019-05-26T16:02:18.990Z,1
2019-05-26T16:07:21.391Z,1
2019-05-26T16:12:23.840Z,1
2019-05-26T16:17:26.298Z,1
2019-05-26T16:22:28.761Z,1
2019-05-26T16:27:31.220Z,1
2019-05-26T16:32:33.658Z,1
2019-05-26T16:42:38.606Z,1
2019-05-26T16:47:41.054Z,1
2019-05-26T16:52:43.539Z,1
2019-05-26T16:57:45.985Z,1
2019-05-26T17:02:48.511Z,1
2019-05-26T17:07:50.895Z,1
2019-05-26T17:12:53.455Z,1
2019-05-26T17:17:55.800Z,1
2019-05-26T17:22:58.289Z,1
2019-05-26T17:28:00.712Z,1
2019-05-26T17:33:03.201Z,1
2019-05-26T17:38:05.643Z,1
2019-05-26T17:43:08.086Z,1
2019-05-26T17:48:10.539Z,1
2019-05-26T17:53:13.041Z,1
2019-05-26T17:58:15.451Z,1
2019-05-26T18:03:17.949Z,1
2019-05-26T18:13:22.835Z,1
2019-05-26T18:18:25.322Z,1
2019-05-26T18:23:27.763Z,1
2019-05-26T18:28:30.219Z,1
2019-05-26T18:33:32.663Z,1
2019-05-26T18:38:35.150Z,1
2019-05-26T18:43:37.592Z,1
2019-05-26T18:48:40.079Z,1
2019-05-26T18:53:42.543Z,1
2019-05-26T18:58:45.049Z,1
2019-05-26T19:03:47.438Z,1
2019-05-26T19:08:49.923Z,1
2019-05-26T19:13:52.379Z,1
2019-05-26T19:18:54.780Z,1
2019-05-26T19:23:57.300Z,1
2019-05-26T19:28:59.705Z,1
2019-05-26T19:34:02.245Z,1
2019-05-26T19:39:04.643Z,1
2019-05-26T19:44:07.094Z,1
2019-05-26T19:49:09.565Z,1
2019-05-26T19:54:13.847Z,1
2019-05-26T19:59:14.473Z,1
2019-05-26T20:04:16.921Z,1
2019-05-26T20:09:19.382Z,1
2019-05-26T20:14:21.864Z,1
2019-05-26T20:19:24.300Z,1
2019-05-26T20:24:26.829Z,1
2019-05-26T20:29:29.207Z,1
2019-05-26T20:34:31.710Z,1
2019-05-26T20:39:34.149Z,1
2019-05-26T20:44:36.570Z,1
2019-05-26T20:49:45.156Z,1
2019-05-26T20:54:41.489Z,1
2019-05-26T20:59:44.059Z,1
2019-05-26T21:04:46.411Z,1
2019-05-26T21:09:48.894Z,1
2019-05-26T21:14:51.548Z,1
2019-05-26T21:19:53.839Z,1
2019-05-26T21:24:56.275Z,1
2019-05-26T21:29:58.707Z,1
2019-05-26T21:35:01.223Z,1
2019-05-26T21:40:03.622Z,1
2019-05-26T21:45:06.154Z,1
2019-05-26T21:50:08.527Z,1
2019-05-26T21:55:11.025Z,1
2019-05-26T22:00:13.488Z,1
2019-05-26T22:05:15.920Z,1
2019-05-26T22:10:18.389Z,1
2019-05-26T22:15:20.846Z,1
2019-05-26T22:20:23.323Z,1
2019-05-26T22:25:25.761Z,1
2019-05-26T22:30:28.194Z,1
2019-05-26T22:35:30.643Z,1
2019-05-26T22:40:33.102Z,1
2019-05-26T22:45:35.630Z,1
2019-05-26T22:50:38.022Z,1
2019-05-26T22:55:40.474Z,1
2019-05-26T23:00:42.945Z,1
2019-05-26T23:05:45.402Z,1
2019-05-26T23:10:47.896Z,1
2019-05-26T23:15:50.334Z,1
2019-05-26T23:20:52.760Z,1
2019-05-26T23:25:55.219Z,1
2019-05-26T23:30:57.703Z,1
2019-05-26T23:36:00.133Z,1
2019-05-26T23:41:02.645Z,1
2019-05-26T23:46:05.092Z,1
2019-05-26T23:51:07.507Z,1
2019-05-26T23:56:09.992Z,1
